Desford, United Kingdom
Current Conditions -  °F | °C
As of 12:20 AM on Thursday 29 Jan 2015 (Local Time) from EGNX Reporting Station
Broken Clouds Broken Clouds  
Wind Chill: 26°   Ceiling: 3200
Heat Index: 36°   Visibility: 6mi
Dew Point: 32°   Wind: 16mph
Humidity: 87%   Direction: 230°SW
Pressure: 29.32"   Gusts: NA
Location:  52.63°N, 1.29°W
Report Text: EGNX 290020Z 23014KT 9999 FEW018 BKN032 02/M00 Q0993
Loading
Personal Weather Stations






























Interactive Weather Map New forecast layout! Learn more

10-Day Weather Forecast

Advertisements
Track Severe Weather on mobile